Time;durP1;ratioP1;P1;durP2;ratioP2;P2;SDS_P1;SDS_P2;PMS_P1;PMS_P2;Temp;Humidity;BMP_temperature;BMP_pressure;BME280_temperature;BME280_humidity;BME280_pressure;Samples;Min_cycle;Max_cycle;Signal;HPM_P1;HPM_P2
2023/04/12 00:04:15;;;;;;;8.63;3.28;;;;;;;15.69;65.95;100835.25;12794517;22;98918;-81
2023/04/12 00:09:19;;;;;;;10.25;3.30;;;;;;;15.35;66.82;100837.91;12794533;22;99142;-81
2023/04/12 00:14:23;;;;;;;8.60;3.22;;;;;;;15.35;66.20;100837.91;12794395;22;99005;-81
2023/04/12 00:19:26;;;;;;;8.30;3.35;;;;;;;15.50;65.83;100834.47;12794944;22;98917;-81
2023/04/12 00:24:31;;;;;;;10.57;3.60;;;;;;;15.48;65.99;100836.34;12794372;22;99035;-81
2023/04/12 00:29:34;;;;;;;12.40;3.40;;;;;;;15.43;66.88;100833.06;12794104;22;99068;-81
2023/04/12 00:34:37;;;;;;;9.93;3.30;;;;;;;15.23;67.34;100840.25;12793022;22;99053;-82
2023/04/12 00:39:42;;;;;;;10.52;3.05;;;;;;;15.43;67.14;100833.06;12795097;22;98941;-81
2023/04/12 00:44:46;;;;;;;10.80;4.13;;;;;;;15.67;67.02;100815.03;12793961;22;99058;-81
2023/04/12 00:49:49;;;;;;;7.13;3.03;;;;;;;15.41;67.95;100815.50;12793850;22;99281;-81
2023/04/12 00:54:54;;;;;;;10.48;3.10;;;;;;;15.70;66.82;100807.75;12794015;22;99289;-81
2023/04/12 00:59:57;;;;;;;;;;;;;;;15.47;67.65;100801.94;12794451;22;99133;-81
2023/04/12 01:05:00;;;;;;;10.57;2.90;;;;;;;15.46;67.59;100803.72;12794388;22;99051;-81
2023/04/12 01:10:09;;;;;;;8.93;2.90;;;;;;;15.43;67.35;100790.63;12795294;22;98961;-81
2023/04/12 01:15:15;;;;;;;7.35;2.95;;;;;;;15.43;67.76;100785.31;12793992;22;99242;-82
2023/04/12 01:20:23;;;;;;;10.68;3.40;;;;;;;15.43;68.21;100782.66;12793603;22;98870;-81
2023/04/12 01:25:39;;;;;;;10.13;3.53;;;;;;;15.28;68.91;100771.97;12792828;22;99113;-81
2023/04/12 01:30:46;;;;;;;7.82;2.95;;;;;;;15.54;67.74;100767.06;12793809;22;99398;-81
2023/04/12 01:35:51;;;;;;;8.75;2.80;;;;;;;15.53;67.76;100757.38;12793624;22;99099;-81
2023/04/12 01:40:55;;;;;;;9.70;3.42;;;;;;;15.51;67.24;100745.16;12793158;22;98956;-81
2023/04/12 01:46:00;;;;;;;12.93;3.20;;;;;;;15.46;67.93;100748.03;12793489;22;98329;-81
2023/04/12 01:51:06;;;;;;;13.27;3.22;;;;;;;15.34;68.24;100742.47;12793151;22;98944;-82
2023/04/12 01:56:11;;;;;;;9.85;3.25;;;;;;;15.26;68.57;100720.81;12793191;22;99125;-81
2023/04/12 02:01:17;;;;;;;8.57;2.83;;;;;;;14.96;69.36;100717.03;12794330;22;98781;-81
2023/04/12 02:06:23;;;;;;;9.13;3.10;;;;;;;15.10;69.38;100710.09;12793360;22;99021;-81
2023/04/12 02:11:25;;;;;;;;;;;;;;;15.13;69.61;100707.28;12792876;22;97862;-82
2023/04/12 02:16:31;;;;;;;11.50;3.03;;;;;;;15.27;68.52;100707.47;12792163;22;99066;-81
2023/04/12 02:21:40;;;;;;;7.30;3.22;;;;;;;15.32;68.90;100704.59;12792641;22;99240;-82
2023/04/12 02:26:43;;;;;;;11.38;2.95;;;;;;;15.34;69.18;100703.56;12792488;22;98063;-81
2023/04/12 02:31:47;;;;;;;9.77;3.20;;;;;;;15.35;69.00;100692.03;12792804;22;98806;-81
2023/04/12 02:36:51;;;;;;;9.18;3.10;;;;;;;15.15;69.44;100673.59;12792925;22;99266;-82
2023/04/12 02:41:55;;;;;;;9.48;3.15;;;;;;;15.03;69.85;100668.06;12792424;22;99025;-81
2023/04/12 02:47:00;;;;;;;9.77;3.13;;;;;;;15.00;70.27;100655.00;12792574;22;98953;-81
2023/04/12 02:52:03;;;;;;;9.23;3.65;;;;;;;15.19;69.62;100667.22;12792929;22;99267;-81
2023/04/12 02:57:07;;;;;;;8.93;3.30;;;;;;;15.30;69.39;100659.56;12795149;22;98971;-81
2023/04/12 03:02:11;;;;;;;8.93;3.30;;;;;;;15.29;69.62;100657.88;12794890;22;99332;-81
2023/04/12 03:07:15;;;;;;;9.15;2.97;;;;;;;15.36;69.75;100658.41;12794954;22;99262;-81
2023/04/12 03:12:18;;;;;;;10.27;3.33;;;;;;;15.35;70.48;100675.28;12795159;22;99513;-82
2023/04/12 03:17:23;;;;;;;8.45;3.22;;;;;;;15.25;70.75;100685.44;12794821;22;98855;-82
2023/04/12 03:22:26;;;;;;;;;;;;;;;15.18;71.15;100672.59;12795402;22;99336;-82
2023/04/12 03:27:29;;;;;;;7.90;3.20;;;;;;;15.08;70.89;100652.81;12795782;22;99042;-81
2023/04/12 03:32:34;;;;;;;8.43;3.28;;;;;;;14.91;71.66;100651.00;12794601;22;99208;-81
2023/04/12 03:37:42;;;;;;;6.20;2.97;;;;;;;15.09;71.03;100644.78;12794927;22;98887;-82
2023/04/12 03:42:46;;;;;;;10.32;3.50;;;;;;;14.91;71.92;100621.88;12795908;22;99076;-82
2023/04/12 03:47:50;;;;;;;8.68;3.28;;;;;;;15.06;71.59;100626.38;12794865;22;99311;-82
2023/04/12 03:52:54;;;;;;;9.05;3.45;;;;;;;14.90;72.32;100633.41;12794160;22;98933;-81
2023/04/12 03:57:57;;;;;;;10.15;3.42;;;;;;;14.86;72.46;100634.50;12793450;22;99466;-81
2023/04/12 04:03:03;;;;;;;9.70;3.53;;;;;;;14.98;72.50;100627.69;12793564;22;98258;-81
2023/04/12 04:08:07;;;;;;;11.35;3.30;;;;;;;14.97;72.41;100621.56;12794488;22;98992;-80
2023/04/12 04:13:11;;;;;;;11.25;3.47;;;;;;;14.98;72.91;100606.50;12794043;22;97816;-79
2023/04/12 04:18:15;;;;;;;10.02;3.42;;;;;;;15.15;72.48;100610.00;12794565;22;99412;-80
2023/04/12 04:23:18;;;;;;;11.43;3.40;;;;;;;15.27;72.30;100606.72;12794561;22;99227;-79
2023/04/12 04:28:22;;;;;;;9.82;3.55;;;;;;;15.28;72.61;100608.47;12794444;22;98979;-79
2023/04/12 04:33:27;;;;;;;12.18;3.95;;;;;;;15.40;72.51;100604.28;12795525;22;99159;-80
2023/04/12 04:38:31;;;;;;;11.23;3.15;;;;;;;15.13;73.74;100595.94;12794597;22;99418;-80
2023/04/12 04:43:38;;;;;;;11.63;3.55;;;;;;;15.03;73.92;100583.25;12794168;22;98948;-80
2023/04/12 04:48:43;;;;;;;10.50;3.10;;;;;;;15.14;73.56;100586.22;12793242;22;98389;-81
2023/04/12 04:53:46;;;;;;;6.85;3.55;;;;;;;15.17;73.62;100589.56;12793840;22;99414;-81
2023/04/12 04:58:50;;;;;;;11.15;3.65;;;;;;;15.11;74.37;100581.91;12794343;22;98977;-81
2023/04/12 05:03:55;;;;;;;8.90;3.30;;;;;;;15.15;74.46;100593.22;12793010;22;97773;-81
2023/04/12 05:09:00;;;;;;;8.98;3.60;;;;;;;15.11;74.41;100589.88;12794292;22;99019;-81
2023/04/12 05:14:03;;;;;;;10.55;3.95;;;;;;;15.10;74.43;100582.88;12794083;22;99232;-81
2023/04/12 05:19:08;;;;;;;9.02;3.30;;;;;;;15.14;74.35;100560.56;12794194;22;99184;-81
2023/04/12 05:24:11;;;;;;;9.15;4.25;;;;;;;15.00;74.99;100568.41;12794670;22;99586;-81
2023/04/12 05:29:14;;;;;;;10.90;3.80;;;;;;;15.16;74.33;100561.34;12793421;22;99006;-81
2023/04/12 05:34:19;;;;;;;11.18;3.53;;;;;;;15.06;74.88;100546.03;12793763;22;99374;-81
2023/04/12 05:39:22;;;;;;;11.27;3.67;;;;;;;15.10;74.85;100543.13;12792594;22;98958;-81
2023/04/12 05:44:26;;;;;;;8.45;3.40;;;;;;;15.03;75.20;100549.69;12793496;22;99286;-81
2023/04/12 05:49:31;;;;;;;10.00;4.10;;;;;;;15.21;74.71;100548.72;12793508;22;97980;-81
2023/04/12 05:54:34;;;;;;;10.43;4.03;;;;;;;15.21;74.97;100542.53;12792949;22;100606;-81
2023/04/12 05:59:37;;;;;;;9.38;3.80;;;;;;;15.27;74.64;100542.22;12793532;22;99236;-81
2023/04/12 06:04:42;;;;;;;12.75;3.63;;;;;;;15.23;75.17;100530.06;12793324;22;98987;-82
2023/04/12 06:09:53;;;;;;;10.57;4.40;;;;;;;15.24;75.32;100531.75;12793319;22;98866;-82
2023/04/12 06:14:56;;;;;;;11.05;3.72;;;;;;;15.08;75.34;100530.91;12793395;22;97929;-81
2023/04/12 06:20:02;;;;;;;8.25;3.85;;;;;;;15.13;75.69;100529.69;12793585;22;98961;-81
2023/04/12 06:25:08;;;;;;;10.00;3.60;;;;;;;15.08;76.13;100515.81;12792823;22;98998;-82
2023/04/12 06:30:11;;;;;;;12.85;4.25;;;;;;;15.16;76.39;100513.63;12793760;22;99060;-81
2023/04/12 06:35:17;;;;;;;10.65;2.88;;;;;;;15.33;75.59;100510.09;12795850;22;99035;-81
2023/04/12 06:40:20;;;;;;;10.20;3.45;;;;;;;15.32;76.06;100506.56;12795307;22;98975;-81
2023/04/12 06:45:23;;;;;;;9.63;2.85;;;;;;;15.42;75.93;100504.28;12795606;22;99148;-81
2023/04/12 06:50:28;;;;;;;10.77;3.40;;;;;;;15.51;75.24;100504.63;12794976;22;99263;-81
2023/04/12 06:55:31;;;;;;;9.05;3.22;;;;;;;15.37;75.86;100506.34;12795243;22;98931;-81
2023/04/12 07:00:35;;;;;;;7.97;3.08;;;;;;;15.45;76.08;100506.75;12795085;22;99295;-81
2023/04/12 07:05:40;;;;;;;11.98;3.38;;;;;;;15.49;75.57;100492.41;12796496;22;98103;-81
2023/04/12 07:10:43;;;;;;;;;;;;;;;15.48;76.35;100480.06;12795969;22;99179;-81
2023/04/12 07:15:46;;;;;;;7.13;3.10;;;;;;;15.72;75.14;100481.31;12795462;22;98930;-81
2023/04/12 07:20:56;;;;;;;7.97;3.38;;;;;;;15.89;75.07;100489.19;12793605;22;99349;-81
2023/04/12 07:26:00;;;;;;;11.52;2.83;;;;;;;15.84;75.55;100496.53;12795493;22;98843;-82
2023/04/12 07:31:05;;;;;;;8.40;2.57;;;;;;;15.83;75.54;100518.72;12796048;22;99055;-81
2023/04/12 07:36:11;;;;;;;6.45;2.63;;;;;;;15.66;76.55;100524.13;12796183;22;99401;-82
2023/04/12 07:41:14;;;;;;;9.57;2.65;;;;;;;15.56;77.14;100520.28;12794588;22;98971;-81
2023/04/12 07:46:17;;;;;;;7.53;2.67;;;;;;;15.60;77.12;100498.81;12794909;22;99271;-81
2023/04/12 07:51:22;;;;;;;7.03;2.40;;;;;;;15.58;77.32;100498.03;12794271;22;98853;-81
2023/04/12 07:56:26;;;;;;;7.78;3.13;;;;;;;15.60;77.66;100509.41;12795766;22;99095;-80
2023/04/12 08:01:29;;;;;;;8.60;3.35;;;;;;;15.61;77.84;100495.19;12794084;22;98941;-80
2023/04/12 08:06:34;;;;;;;6.80;2.55;;;;;;;15.68;77.77;100485.13;12794640;22;99254;-81
2023/04/12 08:11:37;;;;;;;6.95;2.70;;;;;;;15.67;78.39;100499.31;12793862;22;99965;-80
2023/04/12 08:16:42;;;;;;;9.80;3.15;;;;;;;15.62;77.66;100486.31;12795324;22;98933;-78
2023/04/12 08:21:46;;;;;;;9.20;3.30;;;;;;;15.67;77.78;100472.78;12793909;22;99345;-80
2023/04/12 08:26:50;;;;;;;8.25;3.42;;;;;;;15.74;77.73;100474.13;12794536;22;98871;-79
2023/04/12 08:31:55;;;;;;;11.57;3.33;;;;;;;15.67;78.42;100459.50;12797666;22;99049;-81
2023/04/12 08:36:59;;;;;;;5.53;2.70;;;;;;;15.56;78.78;100454.81;12794740;22;98951;-81
2023/04/12 08:42:04;;;;;;;7.88;4.43;;;;;;;15.62;78.97;100467.75;12794112;22;99190;-79
2023/04/12 08:47:09;;;;;;;;;;;;;;;15.36;79.94;100480.75;12795449;22;99007;-82
2023/04/12 08:52:14;;;;;;;5.27;3.00;;;;;;;15.34;79.96;100510.00;12794045;22;98897;-78
2023/04/12 08:57:19;;;;;;;6.55;3.08;;;;;;;15.26;79.17;100528.13;12794269;22;99298;-80
2023/04/12 09:02:22;;;;;;;2.95;1.55;;;;;;;15.21;79.17;100526.63;12794025;22;99153;-80
2023/04/12 09:07:29;;;;;;;1.85;1.20;;;;;;;14.90;79.08;100527.44;12794543;22;99256;-81
2023/04/12 09:12:32;;;;;;;3.80;1.67;;;;;;;14.96;78.29;100553.59;12794034;22;99085;-80
2023/04/12 09:17:37;;;;;;;2.58;1.50;;;;;;;14.74;78.29;100559.16;12794414;22;98900;-80
2023/04/12 09:22:44;;;;;;;2.85;1.80;;;;;;;14.70;78.13;100581.44;12793104;22;98222;-80
2023/04/12 09:27:47;;;;;;;2.72;1.60;;;;;;;14.68;78.33;100593.91;12794543;22;98789;-80
2023/04/12 09:32:52;;;;;;;4.40;2.60;;;;;;;14.49;78.85;100601.06;12794522;22;98965;-80
2023/04/12 09:38:06;;;;;;;4.22;2.60;;;;;;;14.36;79.11;100613.22;12795175;22;99501;-82
2023/04/12 09:43:10;;;;;;;5.40;3.37;;;;;;;14.55;79.22;100613.13;12793802;22;98933;-77
2023/04/12 09:48:19;;;;;;;5.88;3.63;;;;;;;14.58;79.32;100621.78;12792937;22;97824;-77
2023/04/12 09:53:25;;;;;;;6.45;3.88;;;;;;;14.52;79.42;100627.38;12792229;22;98994;-79
2023/04/12 09:58:31;;;;;;;7.53;4.68;;;;;;;14.27;80.22;100641.91;12794423;22;97805;-78
2023/04/12 10:03:35;;;;;;;6.22;4.03;;;;;;;14.18;80.62;100658.22;12792734;22;99103;-79
2023/04/12 10:08:41;;;;;;;5.18;3.30;;;;;;;14.05;80.37;100679.13;12793184;22;99043;-78
2023/04/12 10:13:45;;;;;;;4.95;3.50;;;;;;;14.27;80.06;100678.97;12793525;22;98910;-78
2023/04/12 10:18:51;;;;;;;4.72;3.22;;;;;;;14.31;79.80;100685.84;12794207;22;99140;-79
2023/04/12 10:23:56;;;;;;;7.75;3.58;;;;;;;14.46;79.48;100690.38;12794157;22;99009;-78
2023/04/12 10:29:29;;;;;;;;;;;;;;;14.33;79.96;100708.63;12794699;22;99058;-77
2023/04/12 10:34:32;;;;;;;5.97;3.92;;;;;;;14.67;78.87;100703.44;12678946;22;99361;-78
2023/04/12 10:39:41;;;;;;;4.38;3.28;;;;;;;14.83;77.88;100707.03;12792693;22;98971;-77
2023/04/12 10:44:45;;;;;;;6.05;3.97;;;;;;;14.80;78.06;100714.28;12791602;22;98910;-78
2023/04/12 10:50:23;;;;;;;4.97;3.55;;;;;;;14.87;77.51;100715.69;12792152;22;99183;-78
2023/04/12 10:55:32;;;;;;;5.25;3.35;;;;;;;15.03;77.27;100713.13;12788548;22;99423;-78
2023/04/12 11:01:10;;;;;;;18.02;14.05;;;;;;;15.11;77.21;100714.47;12792432;22;98935;-79
2023/04/12 11:06:15;;;;;;;6.00;4.72;;;;;;;15.15;76.79;100729.28;12791639;22;97260;-78
2023/04/12 11:11:34;;;;;;;131.43;27.20;;;;;;;15.16;76.77;100728.38;12792573;22;98610;-78
2023/04/12 11:17:11;;;;;;;5.95;3.35;;;;;;;14.66;76.77;100730.84;12794848;22;98958;-82
2023/04/12 11:22:16;;;;;;;7.15;3.63;;;;;;;14.92;76.54;100729.59;12796748;22;99220;-82
2023/04/12 11:27:21;;;;;;;6.15;4.55;;;;;;;15.02;76.43;100738.81;12795631;22;99060;-82
2023/04/12 11:32:26;;;;;;;17.95;11.13;;;;;;;14.99;76.57;100746.03;12794937;22;98870;-82
2023/04/12 11:37:30;;;;;;;26.60;16.60;;;;;;;14.91;76.77;100743.75;12793884;22;99000;-81
2023/04/12 11:42:35;;;;;;;24.87;15.93;;;;;;;15.00;76.14;100750.41;12795068;22;98985;-83
2023/04/12 11:47:42;;;;;;;;;;;;;;;15.32;76.54;100741.72;12794893;22;97971;-84
2023/04/12 11:52:45;;;;;;;21.40;12.48;;;;;;;15.62;74.60;100737.47;12795013;22;98962;-82
2023/04/12 11:57:54;;;;;;;12.63;7.13;;;;;;;15.84;73.35;100732.72;12794853;22;98899;-82
2023/04/12 12:02:57;;;;;;;6.47;4.00;;;;;;;15.99;71.80;100736.38;12794700;22;99228;-82
2023/04/12 12:08:10;;;;;;;8.98;4.82;;;;;;;15.93;71.36;100733.13;12795025;22;99022;-82
2023/04/12 12:13:16;;;;;;;9.07;3.75;;;;;;;15.94;70.15;100737.47;12795847;22;98911;-81
2023/04/12 12:18:20;;;;;;;9.40;4.20;;;;;;;16.19;69.20;100733.47;12795177;22;99037;-82
2023/04/12 12:23:30;;;;;;;6.18;3.08;;;;;;;16.42;68.62;100741.06;12794307;22;98836;-82
2023/04/12 12:28:38;;;;;;;7.03;3.30;;;;;;;16.46;67.95;100732.00;12793237;22;98906;-82
2023/04/12 12:33:41;;;;;;;22.42;15.52;;;;;;;16.25;66.90;100730.50;12795261;22;98983;-82
2023/04/12 12:38:53;;;;;;;20.20;13.00;;;;;;;16.14;67.66;100733.75;12794850;22;98841;-83
2023/04/12 12:43:57;;;;;;;9.45;3.60;;;;;;;15.64;67.24;100730.28;12794487;22;98934;-82
2023/04/12 12:49:01;;;;;;;8.30;3.65;;;;;;;15.73;67.91;100727.16;12794719;22;100225;-79
2023/04/12 12:54:06;;;;;;;8.95;3.22;;;;;;;15.68;67.18;100735.34;12794551;22;98977;-80
2023/04/12 12:59:11;;;;;;;10.40;4.63;;;;;;;15.52;66.44;100745.06;12794850;22;99404;-79
2023/04/12 13:04:14;;;;;;;7.97;2.65;;;;;;;15.30;67.15;100752.38;12795275;22;99078;-81
2023/04/12 13:09:17;;;;;;;9.05;3.60;;;;;;;15.14;67.91;100761.16;12794381;22;98966;-83
2023/04/12 13:14:22;;;;;;;10.43;3.33;;;;;;;14.95;68.69;100757.72;12794156;22;97002;-81
2023/04/12 13:19:25;;;;;;;10.68;3.10;;;;;;;15.07;68.13;100763.28;12793114;22;98974;-79
2023/04/12 13:24:28;;;;;;;11.52;3.35;;;;;;;15.18;67.92;100752.97;12794205;22;99235;-80
2023/04/12 13:29:32;;;;;;;12.63;4.68;;;;;;;15.29;68.09;100755.13;12793615;22;99211;-80
2023/04/12 13:34:36;;;;;;;16.10;7.63;;;;;;;15.27;68.18;100749.91;12793556;22;97805;-80
2023/04/12 13:39:40;;;;;;;15.15;7.75;;;;;;;15.33;67.71;100754.03;12794352;22;98910;-80
2023/04/12 13:44:44;;;;;;;14.85;5.70;;;;;;;15.61;66.57;100739.25;12793147;22;97887;-79
2023/04/12 13:49:47;;;;;;;17.00;6.82;;;;;;;15.91;65.73;100734.97;12794359;22;98910;-79
2023/04/12 13:54:51;;;;;;;15.13;6.78;;;;;;;16.49;64.77;100735.34;12794674;22;99030;-81
2023/04/12 13:59:55;;;;;;;13.32;7.25;;;;;;;17.26;63.48;100733.47;12792969;22;97685;-81
2023/04/12 14:04:58;;;;;;;16.75;7.72;;;;;;;17.47;62.63;100720.72;12793503;22;99216;-81
2023/04/12 14:10:02;;;;;;;19.40;5.80;;;;;;;18.14;61.55;100713.78;12792296;22;99294;-79
2023/04/12 14:15:08;;;;;;;14.70;6.03;;;;;;;18.38;60.10;100714.06;12793996;22;98927;-81
2023/04/12 14:20:12;;;;;;;15.10;5.30;;;;;;;18.39;59.38;100696.25;12793138;22;98727;-80
2023/04/12 14:25:15;;;;;;;13.60;5.17;;;;;;;18.15;57.93;100694.22;12792738;22;97549;-82
2023/04/12 14:30:20;;;;;;;13.77;4.88;;;;;;;18.01;57.25;100699.56;12792938;22;99391;-84
2023/04/12 14:35:22;;;;;;;;;;;;;;;17.47;56.73;100691.44;12793598;22;99490;-83
2023/04/12 14:40:26;;;;;;;11.82;3.80;;;;;;;17.53;57.52;100697.28;12794784;22;97844;-83
2023/04/12 14:45:30;;;;;;;8.82;3.47;;;;;;;17.56;55.97;100697.09;12793443;22;98854;-83
2023/04/12 14:50:33;;;;;;;;;;;;;;;17.31;57.77;100696.81;12794846;22;99362;-84
2023/04/12 14:55:36;;;;;;;11.88;3.95;;;;;;;17.30;56.20;100691.59;12795568;22;99287;-84
2023/04/12 15:00:41;;;;;;;10.38;2.85;;;;;;;17.15;54.93;100681.88;12794337;22;98828;-84
2023/04/12 15:05:44;;;;;;;9.30;3.60;;;;;;;17.65;54.48;100677.03;12795204;22;98941;-86
2023/04/12 15:10:47;;;;;;;6.68;2.55;;;;;;;17.55;51.43;100676.75;12795177;22;98955;-84
2023/04/12 15:15:52;;;;;;;6.75;2.60;;;;;;;17.67;49.18;100681.31;12797717;22;99079;-85
2023/04/12 15:20:59;;;;;;;8.35;2.70;;;;;;;17.93;49.50;100677.84;12796336;22;99404;-84
2023/04/12 15:26:05;;;;;;;6.93;2.65;;;;;;;17.85;48.06;100669.50;12795697;22;98964;-86
2023/04/12 15:31:10;;;;;;;5.63;2.35;;;;;;;17.45;48.86;100680.88;12794337;22;97849;-84
2023/04/12 15:36:15;;;;;;;8.00;3.13;;;;;;;17.49;49.66;100682.44;12797315;22;99041;-83
2023/04/12 15:41:18;;;;;;;7.15;2.25;;;;;;;17.46;49.42;100682.63;12795107;22;99279;-79
2023/04/12 15:46:24;;;;;;;10.32;2.88;;;;;;;17.37;48.90;100695.59;12795379;22;98975;-80
2023/04/12 15:51:27;;;;;;;7.93;2.45;;;;;;;17.96;47.29;100676.81;12793748;22;98970;-78
2023/04/12 15:56:31;;;;;;;6.65;1.88;;;;;;;17.70;47.38;100673.13;12794554;22;97925;-80
2023/04/12 16:01:36;;;;;;;5.93;1.92;;;;;;;17.34;48.28;100690.47;12794209;22;99007;-77
2023/04/12 16:06:40;;;;;;;7.40;1.92;;;;;;;17.36;48.25;100694.75;12795080;22;99177;-77
2023/04/12 16:11:45;;;;;;;4.90;1.80;;;;;;;17.19;46.56;100692.22;12795341;22;98925;-78
2023/04/12 16:16:50;;;;;;;6.22;2.10;;;;;;;17.30;47.30;100694.25;12794780;22;99151;-78
2023/04/12 16:21:53;;;;;;;5.53;1.90;;;;;;;16.97;46.43;100697.97;12793391;22;97933;-82
2023/04/12 16:26:56;;;;;;;6.35;1.95;;;;;;;16.95;46.08;100712.28;12795894;22;99065;-84
2023/04/12 16:32:01;;;;;;;8.15;1.85;;;;;;;16.73;45.90;100710.03;12794593;22;97912;-83
2023/04/12 16:37:04;;;;;;;;;;;;;;;16.70;46.47;100723.50;12794908;22;99494;-84
2023/04/12 16:42:07;;;;;;;9.38;2.35;;;;;;;16.72;48.35;100729.56;12793365;22;98876;-82
2023/04/12 16:47:11;;;;;;;6.53;2.33;;;;;;;16.69;47.42;100739.50;12795292;22;99164;-85
2023/04/12 16:52:15;;;;;;;;;;;;;;;16.51;48.09;100737.91;12794554;22;99008;-86
2023/04/12 16:57:18;;;;;;;5.88;2.10;;;;;;;16.52;47.54;100745.78;12794589;22;99442;-85
2023/04/12 17:02:23;;;;;;;8.50;2.35;;;;;;;16.53;47.77;100746.66;12794454;22;99203;-85
2023/04/12 17:07:27;;;;;;;7.50;2.90;;;;;;;16.42;48.01;100762.31;12794571;22;99257;-85
2023/04/12 17:12:30;;;;;;;7.00;1.95;;;;;;;16.36;48.12;100778.59;12793867;22;99359;-85
2023/04/12 17:17:34;;;;;;;7.88;2.13;;;;;;;16.39;48.28;100773.97;12795358;22;98851;-85
2023/04/12 17:22:38;;;;;;;8.90;2.20;;;;;;;16.37;49.13;100788.25;12793318;22;99196;-85
2023/04/12 17:27:41;;;;;;;6.38;2.00;;;;;;;16.05;49.71;100789.16;12793909;22;98908;-85
2023/04/12 17:32:47;;;;;;;8.55;2.08;;;;;;;16.13;49.00;100795.75;12793306;22;98883;-84
2023/04/12 17:37:51;;;;;;;6.72;2.50;;;;;;;15.96;49.62;100781.66;12794503;22;98100;-85
2023/04/12 17:42:54;;;;;;;8.93;2.25;;;;;;;15.77;49.50;100781.75;12793758;22;98929;-85
2023/04/12 17:47:59;;;;;;;9.57;2.00;;;;;;;16.01;49.85;100777.84;12794023;22;98877;-85
2023/04/12 17:53:02;;;;;;;10.05;2.30;;;;;;;15.87;49.23;100781.19;12793242;22;98927;-84
2023/04/12 17:58:05;;;;;;;6.75;2.05;;;;;;;15.77;49.92;100777.31;12793935;22;98898;-85
2023/04/12 18:03:11;;;;;;;6.57;1.75;;;;;;;15.64;48.96;100764.78;12793436;22;97834;-85
2023/04/12 18:08:15;;;;;;;6.45;1.90;;;;;;;15.58;48.98;100770.41;12794756;22;99409;-84
2023/04/12 18:13:18;;;;;;;11.20;2.78;;;;;;;15.48;47.84;100777.97;12794191;22;99421;-86
2023/04/12 18:18:23;;;;;;;6.80;1.52;;;;;;;15.27;47.15;100781.72;12793334;22;98854;-85
2023/04/12 18:23:26;;;;;;;5.63;2.08;;;;;;;15.16;48.77;100788.47;12792327;22;99167;-85
2023/04/12 18:28:30;;;;;;;6.10;1.98;;;;;;;15.10;48.83;100772.84;12796110;22;99055;-85
2023/04/12 18:33:35;;;;;;;7.30;2.13;;;;;;;14.97;48.91;100780.56;12795896;22;98611;-85
2023/04/12 18:38:38;;;;;;;9.05;1.90;;;;;;;15.00;49.62;100784.84;12795438;22;99018;-84
2023/04/12 18:43:41;;;;;;;8.40;1.88;;;;;;;14.75;49.65;100782.53;12796079;22;99259;-84
2023/04/12 18:48:46;;;;;;;6.35;2.10;;;;;;;14.80;50.44;100801.72;12795544;22;99077;-84
2023/04/12 18:53:50;;;;;;;7.32;2.13;;;;;;;14.70;50.22;100811.03;12794892;22;99256;-85
2023/04/12 18:58:54;;;;;;;6.47;2.35;;;;;;;14.56;50.18;100824.94;12797077;22;98953;-85
2023/04/12 19:04:03;;;;;;;8.38;2.15;;;;;;;14.51;51.78;100840.19;12795876;22;99275;-84
2023/04/12 19:09:07;;;;;;;8.27;2.40;;;;;;;14.35;52.00;100838.31;12795600;22;98900;-85
2023/04/12 19:14:10;;;;;;;8.63;2.50;;;;;;;14.18;51.52;100846.16;12794172;22;99082;-84
2023/04/12 19:19:15;;;;;;;6.28;1.90;;;;;;;14.17;51.42;100860.31;12795710;22;99067;-84
2023/04/12 19:24:18;;;;;;;11.32;2.65;;;;;;;14.16;51.02;100870.03;12795278;22;98864;-84
2023/04/12 19:29:23;;;;;;;12.63;2.70;;;;;;;14.05;50.98;100887.31;12795170;22;99074;-85
2023/04/12 19:34:27;;;;;;;10.23;2.47;;;;;;;13.97;51.23;100894.72;12793782;22;97821;-84
2023/04/12 19:39:31;;;;;;;8.50;2.30;;;;;;;13.90;51.28;100909.97;12795195;22;99272;-84
2023/04/12 19:44:35;;;;;;;9.98;2.58;;;;;;;13.96;51.47;100899.13;12795126;22;99168;-84
2023/04/12 19:49:43;;;;;;;8.00;2.38;;;;;;;13.80;53.00;100919.22;12795894;22;98939;-84
2023/04/12 19:54:46;;;;;;;6.43;2.70;;;;;;;13.60;54.80;100917.44;12795009;22;98987;-84
2023/04/12 19:59:50;;;;;;;9.23;3.00;;;;;;;13.29;56.37;100930.16;12794927;22;99114;-84
2023/04/12 20:04:55;;;;;;;10.20;3.60;;;;;;;12.84;58.95;100926.69;12793879;22;98989;-84
2023/04/12 20:09:59;;;;;;;9.60;3.00;;;;;;;12.84;59.04;100929.31;12795200;22;99131;-84
2023/04/12 20:15:03;;;;;;;9.48;3.35;;;;;;;12.66;59.23;100935.28;12794535;22;98950;-84
2023/04/12 20:20:09;;;;;;;11.05;3.38;;;;;;;12.57;59.52;100943.50;12794475;22;98216;-84
2023/04/12 20:25:13;;;;;;;9.38;3.53;;;;;;;12.44;59.63;100953.69;12794707;22;99168;-83
2023/04/12 20:30:16;;;;;;;9.15;3.03;;;;;;;12.14;60.87;100961.78;12795128;22;99392;-84
2023/04/12 20:35:21;;;;;;;6.85;3.13;;;;;;;12.13;60.88;100966.19;12794470;22;99163;-84
2023/04/12 20:40:26;;;;;;;13.65;4.45;;;;;;;12.10;60.43;100973.38;12795288;22;99183;-84
2023/04/12 20:45:30;;;;;;;10.15;4.22;;;;;;;12.11;60.67;100968.06;12794218;22;99105;-84
2023/04/12 20:50:34;;;;;;;8.20;3.67;;;;;;;11.91;60.88;100986.31;12793974;22;98925;-83
2023/04/12 20:55:38;;;;;;;8.23;3.30;;;;;;;12.08;60.81;100991.03;12793642;22;98937;-83
2023/04/12 21:00:41;;;;;;;8.60;3.45;;;;;;;12.22;60.27;101002.81;12794284;22;99447;-84
2023/04/12 21:05:49;;;;;;;9.32;2.92;;;;;;;12.17;60.83;101003.88;12793937;22;99179;-84
2023/04/12 21:10:52;;;;;;;13.20;3.28;;;;;;;12.09;61.50;101006.81;12794299;22;98856;-84
2023/04/12 21:15:57;;;;;;;9.77;3.70;;;;;;;12.02;61.52;101014.97;12794389;22;98995;-84
2023/04/12 21:21:02;;;;;;;14.23;3.38;;;;;;;11.98;60.99;101015.97;12794386;22;98945;-84
2023/04/12 21:26:06;;;;;;;11.25;2.92;;;;;;;12.06;60.97;101014.84;12794058;22;98889;-84
2023/04/12 21:31:10;;;;;;;8.80;2.67;;;;;;;11.76;62.35;101014.97;12794842;22;99082;-84
2023/04/12 21:36:14;;;;;;;10.43;2.75;;;;;;;11.89;62.36;101017.13;12794143;22;99271;-84
2023/04/12 21:41:17;;;;;;;7.95;3.20;;;;;;;11.85;62.18;101018.19;12793965;22;99508;-84
2023/04/12 21:46:25;;;;;;;10.65;3.33;;;;;;;11.75;62.93;101007.97;12792659;22;98822;-84
2023/04/12 21:51:31;;;;;;;8.15;3.60;;;;;;;11.66;63.44;101008.25;12792745;22;97902;-83
2023/04/12 21:56:35;;;;;;;;;;;;;;;11.55;63.52;101007.72;12794210;22;98947;-84
2023/04/12 22:01:38;;;;;;;8.80;3.30;;;;;;;11.57;63.14;101014.69;12793156;22;98886;-83
2023/04/12 22:06:43;;;;;;;8.50;3.10;;;;;;;11.46;63.97;101015.94;12793724;22;99091;-84
2023/04/12 22:11:47;;;;;;;7.13;3.05;;;;;;;11.62;62.46;101015.41;12793626;22;99355;-83
2023/04/12 22:16:52;;;;;;;8.53;3.23;;;;;;;11.50;62.75;101012.28;12793128;22;99066;-84
2023/04/12 22:21:56;;;;;;;9.90;3.30;;;;;;;11.32;63.69;101006.69;12794102;22;98782;-84
2023/04/12 22:27:00;;;;;;;11.15;3.72;;;;;;;11.32;63.98;101006.69;12793592;22;98963;-84
2023/04/12 22:32:03;;;;;;;9.90;3.08;;;;;;;11.38;64.40;101011.78;12792907;22;99109;-84
2023/04/12 22:37:08;;;;;;;12.43;3.00;;;;;;;11.52;63.43;101013.97;12790861;22;96655;-84
2023/04/12 22:42:12;;;;;;;11.40;3.20;;;;;;;11.34;64.09;101006.63;12793112;22;98962;-84
2023/04/12 22:47:16;;;;;;;10.50;2.90;;;;;;;11.14;64.66;101014.28;12793063;22;99296;-84
2023/04/12 22:52:21;;;;;;;7.57;2.58;;;;;;;11.06;65.39;101006.56;12792527;22;99094;-83
2023/04/12 22:57:25;;;;;;;9.65;2.85;;;;;;;10.91;65.61;100995.63;12792684;22;98891;-84
2023/04/12 23:02:28;;;;;;;9.75;3.28;;;;;;;11.13;65.89;101008.16;12792257;22;99028;-84
2023/04/12 23:07:33;;;;;;;8.95;3.17;;;;;;;11.06;65.85;101013.63;12792517;22;98987;-84
2023/04/12 23:12:37;;;;;;;5.43;2.60;;;;;;;11.03;66.37;101025.09;12796077;22;98995;-84
2023/04/12 23:17:41;;;;;;;9.60;3.40;;;;;;;10.92;66.04;101019.28;12794332;22;97852;-84
2023/04/12 23:22:53;;;;;;;7.45;3.20;;;;;;;10.98;65.74;101019.09;12795028;22;98893;-84